createdAt,value
2018-05-12T00:00:25.338Z,15.43
2018-05-12T00:01:35.488Z,14.55
2018-05-12T00:02:41.690Z,15.68
2018-05-12T00:03:48.115Z,13.90
2018-05-12T00:04:55.149Z,16.33
2018-05-12T00:06:00.994Z,15.88
2018-05-12T00:07:07.308Z,17.20
2018-05-12T00:08:14.273Z,15.18
2018-05-12T00:09:20.572Z,14.27
2018-05-12T00:10:27.801Z,16.00
2018-05-12T00:11:34.719Z,16.80
2018-05-12T00:12:41.401Z,16.20
2018-05-12T00:13:47.722Z,13.93
2018-05-12T00:14:54.677Z,14.77
2018-05-12T00:16:01.123Z,15.27
2018-05-12T00:17:07.388Z,13.43
2018-05-12T00:18:13.707Z,15.25
2018-05-12T00:19:21.580Z,14.10
2018-05-12T00:20:28.179Z,15.68
2018-05-12T00:21:40.105Z,15.07
2018-05-12T00:22:47.289Z,18.10
2018-05-12T00:23:53.904Z,17.30
2018-05-12T00:25:00.230Z,16.50
2018-05-12T00:26:06.509Z,15.25
2018-05-12T00:27:14.074Z,16.73
2018-05-12T00:28:21.197Z,15.05
2018-05-12T00:29:27.506Z,16.95
2018-05-12T00:30:33.763Z,15.82
2018-05-12T00:31:39.990Z,15.95
2018-05-12T00:32:46.317Z,15.77
2018-05-12T00:33:53.270Z,19.08
2018-05-12T00:35:01.044Z,14.75
2018-05-12T00:36:07.574Z,15.40
2018-05-12T00:37:14.426Z,15.98
2018-05-12T00:38:22.244Z,16.83
2018-05-12T00:39:29.206Z,15.38
2018-05-12T00:40:35.505Z,14.38
2018-05-12T00:41:41.816Z,14.90
2018-05-12T00:42:48.346Z,15.18
2018-05-12T00:43:55.631Z,16.65
2018-05-12T00:45:03.990Z,15.88
2018-05-12T00:46:12.093Z,16.30
2018-05-12T00:47:18.546Z,18.40
2018-05-12T00:48:24.957Z,16.52
2018-05-12T00:49:31.257Z,16.40
2018-05-12T00:50:38.087Z,19.52
2018-05-12T00:51:45.277Z,15.68
2018-05-12T00:53:13.518Z,14.80
2018-05-12T00:54:19.776Z,16.50
2018-05-12T00:55:25.594Z,14.07
2018-05-12T00:56:32.986Z,17.85
2018-05-12T00:57:39.250Z,15.25
2018-05-12T00:58:45.570Z,15.70
2018-05-12T00:59:51.898Z,15.43
2018-05-12T01:00:58.561Z,19.30
2018-05-12T01:02:06.497Z,17.33
2018-05-12T01:03:15.016Z,15.00
2018-05-12T01:04:21.236Z,18.80
2018-05-12T01:05:27.705Z,17.98
2018-05-12T01:06:33.638Z,15.30
2018-05-12T01:07:40.463Z,15.20
2018-05-12T01:08:47.106Z,16.50
2018-05-12T01:09:53.413Z,15.07
2018-05-12T01:11:00.349Z,15.80
2018-05-12T01:12:05.600Z,20.02
2018-05-12T01:13:11.997Z,15.88
2018-05-12T01:14:17.990Z,13.20
2018-05-12T01:15:24.431Z,15.77
2018-05-12T01:16:30.630Z,17.27
2018-05-12T01:17:37.247Z,17.00
2018-05-12T01:18:43.817Z,16.27
2018-05-12T01:19:51.550Z,15.98
2018-05-12T01:20:58.147Z,16.50
2018-05-12T01:22:05.000Z,15.73
2018-05-12T01:23:11.501Z,17.90
2018-05-12T01:24:18.041Z,16.25
2018-05-12T01:25:24.852Z,17.00
2018-05-12T01:26:31.514Z,15.80
2018-05-12T01:27:38.456Z,17.67
2018-05-12T01:28:44.776Z,17.08
2018-05-12T01:29:51.606Z,16.10
2018-05-12T01:30:58.274Z,19.58
2018-05-12T01:32:04.326Z,16.30
2018-05-12T01:33:10.639Z,17.80
2018-05-12T01:34:17.900Z,16.40
2018-05-12T01:35:24.209Z,15.18
2018-05-12T01:36:30.658Z,15.88
2018-05-12T01:37:36.902Z,16.75
2018-05-12T01:38:43.233Z,15.25
2018-05-12T01:39:49.560Z,14.73
2018-05-12T01:40:56.332Z,16.92
2018-05-12T01:42:03.305Z,14.52
2018-05-12T01:43:09.642Z,16.50
2018-05-12T01:44:15.945Z,16.45
2018-05-12T01:45:22.451Z,19.67
2018-05-12T01:46:28.666Z,16.60
2018-05-12T01:47:35.085Z,16.52
2018-05-12T01:48:41.960Z,14.52
2018-05-12T01:49:48.317Z,15.55
2018-05-12T01:50:54.577Z,19.12
2018-05-12T01:52:03.304Z,20.85
2018-05-12T01:53:09.562Z,16.98
2018-05-12T01:54:16.101Z,14.63
2018-05-12T01:55:22.321Z,14.45
2018-05-12T01:56:28.652Z,17.08
2018-05-12T01:57:36.637Z,19.67
2018-05-12T01:58:43.545Z,16.00
2018-05-12T01:59:49.626Z,15.90
2018-05-12T02:00:56.577Z,16.58
2018-05-12T02:02:02.818Z,16.95
2018-05-12T02:03:09.694Z,17.08
2018-05-12T02:04:16.057Z,17.02
2018-05-12T02:05:23.686Z,18.15
2018-05-12T02:06:29.868Z,19.40
2018-05-12T02:07:36.413Z,18.27
2018-05-12T02:08:42.629Z,18.48
2018-05-12T02:09:50.513Z,18.80
2018-05-12T02:10:56.753Z,20.55
2018-05-12T02:12:03.030Z,17.23
2018-05-12T02:13:10.174Z,20.60
2018-05-12T02:14:17.522Z,21.45
2018-05-12T02:15:24.220Z,19.73
2018-05-12T02:16:30.496Z,18.05
2018-05-12T02:17:36.828Z,17.15
2018-05-12T02:18:43.152Z,18.98
2018-05-12T02:19:49.175Z,17.85
2018-05-12T02:20:55.486Z,17.60
2018-05-12T02:22:01.760Z,19.60
2018-05-12T02:23:08.008Z,21.37
2018-05-12T02:24:15.223Z,19.90
2018-05-12T02:25:21.558Z,21.35
2018-05-12T02:26:27.790Z,19.87
2018-05-12T02:27:34.942Z,18.65
2018-05-12T02:28:43.340Z,20.15
2018-05-12T02:29:50.307Z,18.08
2018-05-12T02:30:56.579Z,20.27
2018-05-12T02:32:02.558Z,19.75
2018-05-12T02:33:08.880Z,19.83
2018-05-12T02:34:15.191Z,23.48
2018-05-12T02:35:21.519Z,18.52
2018-05-12T02:36:27.727Z,22.23
2018-05-12T02:37:33.696Z,27.23
2018-05-12T02:38:40.009Z,20.80
2018-05-12T02:39:46.219Z,22.37
2018-05-12T02:40:52.275Z,21.05
2018-05-12T02:41:58.245Z,20.90
2018-05-12T02:43:04.350Z,22.17
2018-05-12T02:44:11.813Z,22.55
2018-05-12T02:45:18.206Z,20.10
2018-05-12T02:46:24.310Z,18.55
2018-05-12T02:47:30.627Z,19.40
2018-05-12T02:48:37.069Z,19.75
2018-05-12T02:49:43.340Z,19.27
2018-05-12T02:50:49.750Z,18.00
2018-05-12T02:51:55.989Z,20.60
2018-05-12T02:53:02.311Z,23.90
2018-05-12T02:54:08.617Z,21.80
2018-05-12T02:55:15.489Z,24.17
2018-05-12T02:56:22.441Z,22.55
2018-05-12T02:57:29.310Z,25.27
2018-05-12T02:58:35.614Z,27.15
2018-05-12T02:59:41.885Z,22.95
2018-05-12T03:00:48.229Z,27.33
2018-05-12T03:01:54.542Z,22.05
2018-05-12T03:03:00.873Z,22.67
2018-05-12T03:04:07.149Z,21.02
2018-05-12T03:05:14.036Z,24.70
2018-05-12T03:06:21.460Z,22.55
2018-05-12T03:07:27.813Z,24.95
2018-05-12T03:08:34.157Z,20.25
2018-05-12T03:09:40.444Z,19.70
2018-05-12T03:10:46.862Z,19.20
2018-05-12T03:11:53.182Z,20.70
2018-05-12T03:12:59.320Z,22.55
2018-05-12T03:14:05.681Z,19.98
2018-05-12T03:15:12.002Z,18.75
2018-05-12T03:16:18.353Z,22.33
2018-05-12T03:17:24.325Z,19.77
2018-05-12T03:18:30.653Z,21.37
2018-05-12T03:19:38.005Z,21.33
2018-05-12T03:20:45.259Z,23.25
2018-05-12T03:21:52.044Z,23.62
2018-05-12T03:22:58.330Z,20.50
2018-05-12T03:24:05.343Z,21.90
2018-05-12T03:25:11.682Z,19.20
2018-05-12T03:26:17.660Z,23.87
2018-05-12T03:27:24.127Z,22.87
2018-05-12T03:28:30.098Z,21.85
2018-05-12T03:29:37.329Z,22.67
2018-05-12T03:30:43.841Z,23.58
2018-05-12T03:31:50.163Z,22.20
2018-05-12T03:32:56.483Z,24.77
2018-05-12T03:34:02.888Z,23.92
2018-05-12T03:35:09.218Z,22.00
2018-05-12T03:36:16.530Z,25.30
2018-05-12T03:37:23.353Z,24.20
2018-05-12T03:38:30.602Z,22.60
2018-05-12T03:39:37.792Z,23.75
2018-05-12T03:40:44.309Z,22.23
2018-05-12T03:41:50.600Z,22.37
2018-05-12T03:42:56.649Z,23.70
2018-05-12T03:44:02.969Z,23.00
2018-05-12T03:45:09.047Z,23.10
2018-05-12T03:46:15.317Z,23.40
2018-05-12T03:47:21.589Z,22.05
2018-05-12T03:48:29.758Z,20.70
2018-05-12T03:49:36.074Z,21.37
2018-05-12T03:50:43.749Z,21.50
2018-05-12T03:51:51.079Z,20.52
2018-05-12T03:52:57.884Z,19.55
2018-05-12T03:54:04.215Z,26.87
2018-05-12T03:55:10.523Z,22.42
2018-05-12T03:56:16.820Z,23.05
2018-05-12T03:57:23.129Z,23.50
2018-05-12T03:58:29.565Z,21.80
2018-05-12T03:59:35.966Z,25.30
2018-05-12T04:00:42.323Z,23.75
2018-05-12T04:01:48.613Z,22.48
2018-05-12T04:02:54.882Z,23.15
2018-05-12T04:04:01.203Z,21.77
2018-05-12T04:05:18.355Z,24.52
2018-05-12T04:06:36.425Z,22.67
2018-05-12T04:07:53.778Z,28.42
2018-05-12T04:09:10.809Z,23.83
2018-05-12T04:10:19.912Z,28.30
2018-05-12T04:11:37.171Z,25.25
2018-05-12T04:12:43.940Z,23.83
2018-05-12T04:13:50.444Z,29.70
2018-05-12T04:14:56.673Z,28.33
2018-05-12T04:16:02.943Z,26.00
2018-05-12T04:17:09.297Z,29.15
2018-05-12T04:18:15.554Z,25.45
2018-05-12T04:19:21.884Z,25.48
2018-05-12T04:20:28.179Z,24.02
2018-05-12T04:21:34.437Z,28.25
2018-05-12T04:22:40.741Z,28.67
2018-05-12T04:23:47.037Z,28.40
2018-05-12T04:24:53.381Z,25.48
2018-05-12T04:26:00.545Z,26.17
2018-05-12T04:27:07.700Z,25.27
2018-05-12T04:28:14.634Z,27.52
2018-05-12T04:29:21.549Z,24.73
2018-05-12T04:30:27.595Z,31.25
2018-05-12T04:31:34.035Z,27.20
2018-05-12T04:32:40.331Z,27.65
2018-05-12T04:33:46.603Z,28.02
2018-05-12T04:34:52.944Z,23.70
2018-05-12T04:35:59.227Z,24.48
2018-05-12T04:37:05.531Z,27.95
2018-05-12T04:38:11.854Z,26.27
2018-05-12T04:39:18.244Z,27.45
2018-05-12T04:40:24.556Z,26.67
2018-05-12T04:41:30.897Z,29.92
2018-05-12T04:42:37.216Z,26.42
2018-05-12T04:43:44.153Z,26.80
2018-05-12T04:44:51.266Z,24.70
2018-05-12T04:45:57.560Z,29.33
2018-05-12T04:47:04.042Z,24.70
2018-05-12T04:48:11.270Z,27.15
2018-05-12T04:49:17.518Z,28.45
2018-05-12T04:50:23.878Z,25.12
2018-05-12T04:51:31.086Z,30.33
2018-05-12T04:52:37.399Z,33.15
2018-05-12T04:53:43.794Z,30.98
2018-05-12T04:54:50.134Z,29.85
2018-05-12T04:55:56.426Z,30.33
2018-05-12T04:57:02.753Z,31.00
2018-05-12T04:58:09.269Z,31.15
2018-05-12T04:59:15.574Z,26.83
2018-05-12T05:00:21.881Z,30.77
2018-05-12T05:01:29.730Z,29.63
2018-05-12T05:02:36.055Z,33.13
2018-05-12T05:03:42.536Z,32.58
2018-05-12T05:04:48.849Z,30.25
2018-05-12T05:05:55.201Z,32.55
2018-05-12T05:07:01.474Z,32.53
2018-05-12T05:08:07.859Z,32.20
2018-05-12T05:09:14.653Z,31.85
2018-05-12T05:10:21.676Z,31.75
2018-05-12T05:11:27.989Z,30.62
2018-05-12T05:12:33.938Z,35.55
2018-05-12T05:13:40.287Z,28.45
2018-05-12T05:14:46.591Z,33.78
2018-05-12T05:15:52.913Z,35.45
2018-05-12T05:16:59.149Z,30.60
2018-05-12T05:18:06.265Z,32.03
2018-05-12T05:19:17.038Z,32.58
2018-05-12T05:20:23.229Z,34.30
2018-05-12T05:21:29.481Z,38.20
2018-05-12T05:22:35.598Z,34.28
2018-05-12T05:23:42.010Z,37.00
2018-05-12T05:24:48.312Z,35.63
2018-05-12T05:25:54.605Z,39.20
2018-05-12T05:27:01.499Z,37.30
2018-05-12T05:28:08.424Z,40.80
2018-05-12T05:29:14.766Z,40.33
2018-05-12T05:30:21.109Z,38.58
2018-05-12T05:31:27.386Z,40.22
2018-05-12T05:32:33.722Z,32.03
2018-05-12T05:33:40.065Z,34.92
2018-05-12T05:34:46.265Z,36.83
2018-05-12T05:35:53.992Z,33.95
2018-05-12T05:37:00.197Z,37.75
2018-05-12T05:38:06.181Z,36.83
2018-05-12T05:39:12.626Z,37.10
2018-05-12T05:40:18.897Z,35.20
2018-05-12T05:41:25.141Z,35.55
2018-05-12T05:42:31.452Z,39.70
2018-05-12T05:43:37.763Z,39.30
2018-05-12T05:44:44.878Z,38.92
2018-05-12T05:45:51.235Z,33.83
2018-05-12T05:46:57.493Z,35.45
2018-05-12T05:48:03.852Z,32.97
2018-05-12T05:49:10.153Z,35.55
2018-05-12T05:50:16.154Z,34.03
2018-05-12T05:51:23.609Z,37.42
2018-05-12T05:52:31.755Z,37.53
2018-05-12T05:53:38.165Z,36.58
2018-05-12T05:54:44.418Z,35.50
2018-05-12T05:55:50.701Z,37.85
2018-05-12T05:56:57.169Z,36.58
2018-05-12T05:58:03.428Z,33.63
2018-05-12T05:59:09.934Z,38.83
2018-05-12T06:00:15.622Z,35.65
2018-05-12T06:01:21.901Z,36.30
2018-05-12T06:02:30.372Z,39.47
2018-05-12T06:03:38.088Z,40.17
2018-05-12T06:04:44.360Z,34.28
2018-05-12T06:05:51.429Z,38.25
2018-05-12T06:07:00.862Z,36.45
2018-05-12T06:08:09.255Z,39.78
2018-05-12T06:09:16.505Z,35.85
2018-05-12T06:10:23.920Z,37.40
2018-05-12T06:11:30.418Z,37.08
2018-05-12T06:12:37.145Z,36.53
2018-05-12T06:13:49.179Z,36.85
2018-05-12T06:14:57.701Z,40.63
2018-05-12T06:16:05.066Z,41.53
2018-05-12T06:17:12.524Z,40.08
2018-05-12T06:18:24.245Z,39.35
2018-05-12T06:19:34.329Z,44.40
2018-05-12T06:20:41.182Z,39.28
2018-05-12T06:21:50.662Z,36.17
2018-05-12T06:22:57.085Z,38.67
2018-05-12T06:24:04.045Z,37.67
2018-05-12T06:25:12.218Z,40.45
2018-05-12T06:26:19.637Z,40.17
2018-05-12T06:27:26.486Z,35.33
2018-05-12T06:28:34.701Z,33.70
2018-05-12T06:29:41.602Z,38.58
2018-05-12T06:30:49.340Z,37.03
2018-05-12T06:31:56.589Z,38.80
2018-05-12T06:33:03.403Z,37.13
2018-05-12T06:34:11.224Z,37.25
2018-05-12T06:35:18.194Z,43.25
2018-05-12T06:36:28.218Z,38.90
2018-05-12T06:37:36.735Z,35.03
2018-05-12T06:38:44.235Z,37.42
2018-05-12T06:39:51.306Z,38.80
2018-05-12T06:40:58.010Z,40.17
2018-05-12T06:42:05.785Z,37.95
2018-05-12T06:43:13.567Z,38.33
2018-05-12T06:44:22.898Z,41.37
2018-05-12T06:45:30.916Z,35.60
2018-05-12T06:46:38.079Z,41.20
2018-05-12T06:47:45.335Z,34.88
2018-05-12T06:48:52.973Z,36.17
2018-05-12T06:50:00.112Z,39.08
2018-05-12T06:51:09.154Z,35.67
2018-05-12T06:52:16.169Z,39.00
2018-05-12T06:53:23.160Z,34.13
2018-05-12T06:54:29.841Z,35.97
2018-05-12T06:55:37.818Z,39.30
2018-05-12T06:56:44.507Z,40.50
2018-05-12T06:57:51.125Z,38.10
2018-05-12T06:58:58.771Z,39.42
2018-05-12T07:00:07.942Z,39.58
2018-05-12T07:01:16.880Z,37.05
2018-05-12T07:02:23.619Z,39.03
2018-05-12T07:03:29.953Z,36.45
2018-05-12T07:04:36.247Z,35.92
2018-05-12T07:05:42.520Z,33.45
2018-05-12T07:06:49.318Z,38.60
2018-05-12T07:07:56.014Z,36.83
2018-05-12T07:09:03.473Z,38.53
2018-05-12T07:10:10.739Z,37.65
2018-05-12T07:11:17.664Z,35.40
2018-05-12T07:12:24.832Z,38.28
2018-05-12T07:13:31.706Z,38.78
2018-05-12T07:14:38.571Z,38.15
2018-05-12T07:15:45.519Z,39.97
2018-05-12T07:16:52.859Z,39.63
2018-05-12T07:17:59.476Z,43.40
2018-05-12T07:19:05.818Z,33.28
2018-05-12T07:20:12.653Z,36.05
2018-05-12T07:21:18.727Z,39.92
2018-05-12T07:22:25.926Z,37.28
2018-05-12T07:23:32.401Z,39.00
2018-05-12T07:24:39.192Z,40.25
2018-05-12T07:25:46.439Z,38.50
2018-05-12T07:26:53.755Z,41.00
2018-05-12T07:28:01.170Z,40.53
2018-05-12T07:29:08.329Z,42.50
2018-05-12T07:30:15.254Z,40.17
2018-05-12T07:31:22.467Z,35.65
2018-05-12T07:32:29.932Z,36.97
2018-05-12T07:33:38.069Z,38.00
2018-05-12T07:34:45.918Z,35.63
2018-05-12T07:35:52.225Z,34.85
2018-05-12T07:37:00.184Z,36.97
2018-05-12T07:38:07.212Z,41.78
2018-05-12T07:39:13.990Z,37.22
2018-05-12T07:40:21.300Z,35.80
2018-05-12T07:41:29.112Z,39.08
2018-05-12T07:42:35.783Z,33.00
2018-05-12T07:43:41.772Z,38.22
2018-05-12T07:44:48.148Z,38.08
2018-05-12T07:45:54.463Z,31.02
2018-05-12T07:47:00.722Z,35.45
2018-05-12T07:48:07.594Z,39.05
2018-05-12T07:49:14.679Z,38.88
2018-05-12T07:50:21.022Z,40.47
2018-05-12T07:51:27.238Z,37.90
2018-05-12T07:52:33.542Z,40.95
2018-05-12T07:53:39.831Z,38.75
2018-05-12T07:54:46.242Z,41.45
2018-05-12T07:55:52.585Z,38.10
2018-05-12T07:56:58.863Z,36.08
2018-05-12T07:58:05.397Z,34.13
2018-05-12T07:59:11.791Z,36.65
2018-05-12T08:00:18.139Z,31.55
2018-05-12T08:01:24.933Z,41.03
2018-05-12T08:02:31.252Z,37.78
2018-05-12T08:03:37.582Z,36.13
2018-05-12T08:04:44.123Z,33.30
2018-05-12T08:05:50.410Z,39.38
2018-05-12T08:06:56.702Z,37.38
2018-05-12T08:08:03.005Z,37.22
2018-05-12T08:09:09.351Z,38.30
2018-05-12T08:10:15.675Z,37.13
2018-05-12T08:11:24.617Z,35.47
2018-05-12T08:12:33.699Z,41.00
2018-05-12T08:13:43.235Z,39.05
2018-05-12T08:14:55.406Z,34.83
2018-05-12T08:16:04.859Z,35.88
2018-05-12T08:17:14.923Z,34.97
2018-05-12T08:18:23.066Z,38.85
2018-05-12T08:19:34.192Z,32.35
2018-05-12T08:20:43.449Z,36.53
2018-05-12T08:21:52.162Z,37.33
2018-05-12T08:23:04.598Z,32.80
2018-05-12T08:24:15.207Z,34.50
2018-05-12T08:25:23.309Z,33.75
2018-05-12T08:26:32.540Z,34.17
2018-05-12T08:27:41.581Z,32.42
2018-05-12T08:28:49.197Z,31.45
2018-05-12T08:29:58.722Z,29.35
2018-05-12T08:31:05.612Z,35.25
2018-05-12T08:32:11.820Z,37.20
2018-05-12T08:33:18.105Z,32.67
2018-05-12T08:34:24.365Z,27.40
2018-05-12T08:35:31.620Z,35.33
2018-05-12T08:36:39.321Z,35.28
2018-05-12T08:37:47.985Z,29.90
2018-05-12T08:38:56.830Z,27.70
2018-05-12T08:40:06.554Z,34.10
2018-05-12T08:41:15.152Z,30.73
2018-05-12T08:42:23.204Z,29.75
2018-05-12T08:43:31.851Z,28.60
2018-05-12T08:44:39.076Z,31.37
2018-05-12T08:45:45.508Z,30.33
2018-05-12T08:46:52.673Z,28.75
2018-05-12T08:47:59.703Z,31.02
2018-05-12T08:49:08.486Z,27.33
2018-05-12T08:50:15.335Z,26.55
2018-05-12T08:51:21.942Z,24.60
2018-05-12T08:52:28.282Z,29.35
2018-05-12T08:53:34.666Z,27.62
2018-05-12T08:54:40.906Z,27.08
2018-05-12T08:55:47.945Z,28.48
2018-05-12T08:56:54.371Z,31.05
2018-05-12T08:58:00.447Z,29.20
2018-05-12T08:59:06.995Z,28.10
2018-05-12T09:00:15.692Z,27.50
2018-05-12T09:01:26.646Z,27.15
2018-05-12T09:02:33.354Z,27.58
2018-05-12T09:03:40.438Z,26.20
2018-05-12T09:04:46.658Z,30.27
2018-05-12T09:05:53.060Z,28.50
2018-05-12T09:06:59.401Z,24.70
2018-05-12T09:08:05.618Z,29.12
2018-05-12T09:09:11.921Z,24.83
2018-05-12T09:10:18.149Z,27.55
2018-05-12T09:11:24.957Z,27.85
2018-05-12T09:12:31.218Z,24.77
2018-05-12T09:13:37.527Z,27.48
2018-05-12T09:14:43.875Z,25.37
2018-05-12T09:15:50.136Z,29.65
2018-05-12T09:16:56.556Z,25.10
2018-05-12T09:18:02.875Z,25.58
2018-05-12T09:19:10.770Z,26.15
2018-05-12T09:20:19.255Z,28.08
2018-05-12T09:21:26.309Z,27.55
2018-05-12T09:22:33.093Z,29.20
2018-05-12T09:23:39.466Z,27.25
2018-05-12T09:24:45.741Z,28.30
2018-05-12T09:25:51.855Z,25.17
2018-05-12T09:26:58.263Z,28.25
2018-05-12T09:28:04.737Z,24.63
2018-05-12T09:29:11.585Z,26.23
2018-05-12T09:30:18.618Z,26.58
2018-05-12T09:31:24.994Z,27.90
2018-05-12T09:32:31.290Z,30.00
2018-05-12T09:33:37.592Z,24.23
2018-05-12T09:34:44.819Z,24.05
2018-05-12T09:35:52.333Z,24.40
2018-05-12T09:36:58.602Z,29.40
2018-05-12T09:38:04.490Z,30.20
2018-05-12T09:39:10.790Z,28.90
2018-05-12T09:40:17.102Z,26.23
2018-05-12T09:41:23.446Z,24.60
2018-05-12T09:42:29.797Z,29.45
2018-05-12T09:43:36.225Z,24.17
2018-05-12T09:44:42.534Z,22.80
2018-05-12T09:45:48.852Z,25.90
2018-05-12T09:46:55.193Z,22.13
2018-05-12T09:48:02.241Z,24.27
2018-05-12T09:49:08.495Z,24.63
2018-05-12T09:50:15.413Z,24.20
2018-05-12T09:51:22.317Z,22.80
2018-05-12T09:52:28.690Z,21.15
2018-05-12T09:53:35.210Z,20.52
2018-05-12T09:54:41.526Z,23.52
2018-05-12T09:55:47.915Z,22.67
2018-05-12T09:56:54.253Z,22.33
2018-05-12T09:58:00.567Z,21.67
2018-05-12T09:59:06.769Z,22.33
2018-05-12T10:00:12.843Z,23.35
2018-05-12T10:01:19.158Z,25.70
2018-05-12T10:02:25.493Z,24.90
2018-05-12T10:03:31.764Z,25.50
2018-05-12T10:04:38.045Z,21.50
2018-05-12T10:05:44.304Z,24.30
2018-05-12T10:06:50.656Z,23.30
2018-05-12T10:07:56.904Z,24.08
2018-05-12T10:09:03.158Z,22.60
2018-05-12T10:10:09.481Z,20.85
2018-05-12T10:11:15.761Z,21.37
2018-05-12T10:12:22.151Z,23.23
2018-05-12T10:13:28.439Z,23.27
2018-05-12T10:14:34.702Z,23.00
2018-05-12T10:15:41.251Z,22.45
2018-05-12T10:16:47.761Z,22.42
2018-05-12T10:17:54.260Z,21.27
2018-05-12T10:19:00.607Z,23.30
2018-05-12T10:20:06.843Z,20.65
2018-05-12T10:21:12.858Z,21.07
2018-05-12T10:22:19.444Z,20.35
2018-05-12T10:23:25.959Z,20.62
2018-05-12T10:24:32.273Z,22.35
2018-05-12T10:25:38.552Z,22.73
2018-05-12T10:26:45.805Z,22.80
2018-05-12T10:27:52.972Z,24.80
2018-05-12T10:28:58.884Z,22.52
2018-05-12T10:30:05.097Z,26.23
2018-05-12T10:31:11.444Z,21.98
2018-05-12T10:32:17.776Z,20.90
2018-05-12T10:33:24.048Z,23.83
2018-05-12T10:34:30.390Z,21.42
2018-05-12T10:35:37.358Z,24.70
2018-05-12T10:36:43.623Z,21.12
2018-05-12T10:37:49.951Z,20.08
2018-05-12T10:38:56.296Z,22.95
2018-05-12T10:40:02.530Z,17.65
2018-05-12T10:41:10.264Z,18.67
2018-05-12T10:42:16.990Z,19.23
2018-05-12T10:43:23.815Z,20.27
2018-05-12T10:44:30.145Z,20.90
2018-05-12T10:45:36.473Z,21.42
2018-05-12T10:46:42.761Z,19.37
2018-05-12T10:47:49.118Z,20.60
2018-05-12T10:48:55.401Z,20.40
2018-05-12T10:50:01.683Z,22.13
2018-05-12T10:51:07.949Z,20.20
2018-05-12T10:52:14.234Z,20.92
2018-05-12T10:53:20.582Z,21.08
2018-05-12T10:54:26.877Z,19.05
2018-05-12T10:55:33.162Z,25.05
2018-05-12T10:56:40.116Z,22.30
2018-05-12T10:57:46.451Z,21.35
2018-05-12T10:58:52.956Z,23.02
2018-05-12T10:59:59.241Z,18.92
2018-05-12T11:01:05.539Z,20.27
2018-05-12T11:02:20.186Z,24.12
2018-05-12T11:03:26.595Z,22.00
2018-05-12T11:04:32.829Z,25.08
2018-05-12T11:05:39.091Z,22.58
2018-05-12T11:06:45.397Z,22.83
2018-05-12T11:07:52.217Z,22.98
2018-05-12T11:08:58.525Z,20.02
2018-05-12T11:10:04.828Z,20.12
2018-05-12T11:11:11.240Z,22.60
2018-05-12T11:12:17.455Z,22.42
2018-05-12T11:13:24.071Z,23.30
2018-05-12T11:14:31.017Z,22.60
2018-05-12T11:15:37.342Z,23.30
2018-05-12T11:16:43.582Z,20.77
2018-05-12T11:17:49.647Z,22.73
2018-05-12T11:18:55.935Z,21.67
2018-05-12T11:20:01.907Z,21.02
2018-05-12T11:21:08.172Z,24.15
2018-05-12T11:22:14.510Z,24.30
2018-05-12T11:23:21.017Z,24.70
2018-05-12T11:24:27.660Z,22.10
2018-05-12T11:25:35.894Z,22.50
2018-05-12T11:26:43.450Z,22.55
2018-05-12T11:27:49.954Z,23.77
2018-05-12T11:28:56.260Z,20.83
2018-05-12T11:30:02.596Z,22.08
2018-05-12T11:31:08.876Z,22.37
2018-05-12T11:32:15.206Z,22.98
2018-05-12T11:33:21.809Z,22.67
2018-05-12T11:34:28.641Z,22.67
2018-05-12T11:35:34.970Z,22.02
2018-05-12T11:36:41.256Z,22.55
2018-05-12T11:37:47.594Z,21.75
2018-05-12T11:38:54.044Z,22.23
2018-05-12T11:40:00.282Z,22.30
2018-05-12T11:41:06.920Z,23.02
2018-05-12T11:42:13.323Z,21.80
2018-05-12T11:43:19.763Z,24.20
2018-05-12T11:44:26.137Z,24.48
2018-05-12T11:45:32.587Z,27.62
2018-05-12T11:46:38.873Z,26.75
2018-05-12T11:47:45.219Z,26.33
2018-05-12T11:48:53.080Z,25.65
2018-05-12T11:49:59.819Z,23.87
2018-05-12T11:51:06.169Z,24.87
2018-05-12T11:52:12.440Z,23.40
2018-05-12T11:53:18.720Z,27.48
2018-05-12T11:54:25.272Z,25.73
2018-05-12T11:55:31.517Z,25.95
2018-05-12T11:56:37.950Z,23.27
2018-05-12T11:57:44.277Z,24.77
2018-05-12T11:58:50.591Z,26.52
2018-05-12T11:59:57.517Z,28.87
2018-05-12T12:01:03.798Z,24.50
2018-05-12T12:02:10.140Z,24.25
2018-05-12T12:03:16.463Z,21.80
2018-05-12T12:04:22.717Z,22.30
2018-05-12T12:05:29.946Z,21.75
2018-05-12T12:06:36.837Z,23.20
2018-05-12T12:07:43.099Z,22.23
2018-05-12T12:08:49.424Z,24.17
2018-05-12T12:09:55.732Z,20.35
2018-05-12T12:11:02.033Z,22.23
2018-05-12T12:12:08.342Z,19.80
2018-05-12T12:13:14.705Z,19.77
2018-05-12T12:14:21.755Z,21.10
2018-05-12T12:15:28.116Z,21.67
2018-05-12T12:16:34.444Z,20.70
2018-05-12T12:17:40.746Z,19.87
2018-05-12T12:18:47.228Z,19.77
2018-05-12T12:19:53.522Z,19.75
2018-05-12T12:21:00.414Z,22.13
2018-05-12T12:22:07.196Z,20.60
2018-05-12T12:23:13.638Z,18.55
2018-05-12T12:24:19.950Z,19.60
2018-05-12T12:25:26.271Z,19.02
2018-05-12T12:26:32.546Z,20.25
2018-05-12T12:27:39.003Z,20.15
2018-05-12T12:28:45.614Z,18.83
2018-05-12T12:29:51.882Z,19.42
2018-05-12T12:30:58.239Z,19.30
2018-05-12T12:32:04.483Z,20.40
2018-05-12T12:33:10.713Z,19.30
2018-05-12T12:34:17.060Z,22.08
2018-05-12T12:35:24.733Z,20.20
2018-05-12T12:36:31.447Z,19.52
2018-05-12T12:37:38.304Z,21.20
2018-05-12T12:38:44.345Z,22.42
2018-05-12T12:39:50.759Z,19.80
2018-05-12T12:40:56.820Z,22.17
2018-05-12T12:42:03.389Z,18.85
2018-05-12T12:43:09.678Z,20.42
2018-05-12T12:44:16.042Z,21.87
2018-05-12T12:45:22.438Z,18.83
2018-05-12T12:46:28.950Z,19.98
2018-05-12T12:47:35.232Z,18.48
2018-05-12T12:48:41.587Z,19.12
2018-05-12T12:49:47.901Z,18.15
2018-05-12T12:50:54.191Z,18.33
2018-05-12T12:52:00.500Z,18.73
2018-05-12T12:53:06.825Z,17.40
2018-05-12T12:54:13.147Z,17.00
2018-05-12T12:55:19.458Z,18.08
2018-05-12T12:56:25.949Z,16.27
2018-05-12T12:57:32.272Z,18.90
2018-05-12T12:58:38.606Z,19.10
2018-05-12T12:59:44.932Z,17.85
2018-05-12T13:00:51.158Z,18.20
2018-05-12T13:01:57.509Z,17.98
2018-05-12T13:03:03.483Z,18.12
2018-05-12T13:04:09.845Z,19.35
2018-05-12T13:05:16.163Z,16.95
2018-05-12T13:06:22.947Z,16.25
2018-05-12T13:07:29.261Z,16.25
2018-05-12T13:08:35.618Z,16.73
2018-05-12T13:09:41.942Z,16.08
2018-05-12T13:10:48.397Z,16.65
2018-05-12T13:11:54.727Z,21.80
2018-05-12T13:13:02.232Z,17.30
2018-05-12T13:14:08.972Z,17.42
2018-05-12T13:15:15.217Z,16.95
2018-05-12T13:16:22.092Z,17.87
2018-05-12T13:17:28.487Z,17.65
2018-05-12T13:18:35.377Z,16.90
2018-05-12T13:19:41.723Z,16.37
2018-05-12T13:20:48.014Z,16.48
2018-05-12T13:21:54.298Z,15.85
2018-05-12T13:23:01.193Z,15.73
2018-05-12T13:24:08.117Z,15.52
2018-05-12T13:25:14.526Z,15.60
2018-05-12T13:26:20.890Z,14.55
2018-05-12T13:27:28.013Z,15.77
2018-05-12T13:28:35.339Z,15.95
2018-05-12T13:29:42.369Z,16.90
2018-05-12T13:30:49.305Z,16.08
2018-05-12T13:31:55.613Z,16.42
2018-05-12T13:33:02.049Z,15.00
2018-05-12T13:34:08.855Z,15.20
2018-05-12T13:35:15.246Z,16.05
2018-05-12T13:36:21.817Z,15.70
2018-05-12T13:37:28.089Z,15.00
2018-05-12T13:38:34.394Z,15.45
2018-05-12T13:39:40.741Z,14.77
2018-05-12T13:40:46.997Z,16.40
2018-05-12T13:41:53.351Z,14.40
2018-05-12T13:42:59.650Z,16.12
2018-05-12T13:44:05.958Z,15.13
2018-05-12T13:45:12.301Z,13.07
2018-05-12T13:46:18.606Z,14.02
2018-05-12T13:47:24.929Z,12.10
2018-05-12T13:48:31.239Z,13.70
2018-05-12T13:49:37.541Z,14.85
2018-05-12T13:50:43.849Z,15.02
2018-05-12T13:51:50.130Z,14.60
2018-05-12T13:52:56.440Z,14.52
2018-05-12T13:54:02.798Z,13.73
2018-05-12T13:55:09.226Z,15.00
2018-05-12T13:56:15.520Z,13.23
2018-05-12T13:57:22.968Z,13.23
2018-05-12T13:58:29.432Z,12.85
2018-05-12T13:59:35.804Z,13.98
2018-05-12T14:00:42.069Z,15.68
2018-05-12T14:01:48.397Z,14.10
2018-05-12T14:02:54.717Z,13.18
2018-05-12T14:04:01.016Z,13.68
2018-05-12T14:05:07.347Z,14.05
2018-05-12T14:06:13.666Z,15.90
2018-05-12T14:07:19.986Z,14.65
2018-05-12T14:08:25.756Z,14.38
2018-05-12T14:09:32.147Z,12.85
2018-05-12T14:10:38.509Z,13.88
2018-05-12T14:11:44.784Z,14.25
2018-05-12T14:12:51.128Z,13.05
2018-05-12T14:13:57.349Z,13.95
2018-05-12T14:15:04.040Z,12.67
2018-05-12T14:16:10.436Z,14.80
2018-05-12T14:17:17.474Z,12.05
2018-05-12T14:18:23.772Z,13.43
2018-05-12T14:19:31.103Z,14.15
2018-05-12T14:20:38.650Z,13.63